Terminal Aerodrome Forecast
Issued by NWS Mobile, AL

Home | Current Version | Previous Version | Text Only | Print | Product List | Glossary On
Versions: 1 2 3 4 5 6 7 8 9 10 11 12 13 14 15 16 17 18
000
FTUS44 KMOB 271148
TAFMOB
TAF
KMOB 271148Z 2712/2812 19003KT P6SM FEW050 SCT250
     FM271400 20010KT P6SM VCSH SCT025 BKN050
      TEMPO 2717/2721 3SM TSRA OVC025CB
     FM272300 20004KT P6SM FEW025 SCT050=

USA.gov is the U.S. government's official web portal to all federal, state and local government web resources and services.